Time;durP1;ratioP1;P1;durP2;ratioP2;P2;SDS_P1;SDS_P2;PMS_P1;PMS_P2;Temp;Humidity;BMP_temperature;BMP_pressure;BME280_temperature;BME280_humidity;BME280_pressure;Samples;Min_cycle;Max_cycle;Signal;HPM_P1;HPM_P2
2023/03/21 00:00:22;;;;;;;6.07;2.17;;;10.10;99.90;;;;;;5016989;28;20089;-68
2023/03/21 00:02:48;;;;;;;8.73;2.58;;;10.10;99.90;;;;;;5016915;28;20057;-68
2023/03/21 00:05:13;;;;;;;6.72;2.38;;;10.10;99.90;;;;;;5017199;28;20068;-64
2023/03/21 00:07:39;;;;;;;5.18;2.15;;;10.20;99.90;;;;;;5016895;28;20037;-64
2023/03/21 00:10:05;;;;;;;8.88;2.35;;;10.20;99.90;;;;;;5016868;28;20030;-64
2023/03/21 00:12:31;;;;;;;11.27;4.53;;;10.20;99.90;;;;;;5017087;28;20026;-64
2023/03/21 00:15:03;;;;;;;9.18;2.05;;;10.20;99.90;;;;;;5018736;28;20032;-64
2023/03/21 00:17:31;;;;;;;10.10;2.20;;;10.30;99.90;;;;;;5017395;28;20026;-64
2023/03/21 00:20:04;;;;;;;3.60;2.55;;;10.30;99.90;;;;;;5040066;23;20038;-66
2023/03/21 00:22:30;;;;;;;6.85;1.98;;;10.30;99.90;;;;;;5017358;28;20121;-66
2023/03/21 00:24:56;;;;;;;5.03;2.40;;;10.30;99.90;;;;;;5017519;28;20022;-66
2023/03/21 00:27:22;;;;;;;5.07;2.00;;;10.30;99.90;;;;;;5018012;28;20038;-66
2023/03/21 00:29:48;;;;;;;5.88;2.13;;;10.20;99.90;;;;;;5016787;28;20144;-66
2023/03/21 00:32:15;;;;;;;8.60;2.20;;;10.30;99.90;;;;;;5017638;28;20026;-66
2023/03/21 00:34:44;;;;;;;5.18;3.00;;;10.30;99.90;;;;;;5017060;28;20029;-66
2023/03/21 00:37:13;;;;;;;5.93;2.70;;;10.30;99.90;;;;;;5016675;28;20025;-66
2023/03/21 00:39:39;;;;;;;5.45;2.67;;;10.30;99.90;;;;;;5016576;28;20116;-66
2023/03/21 00:42:04;;;;;;;9.68;3.35;;;10.20;99.90;;;;;;5016374;28;20139;-66
2023/03/21 00:44:35;;;;;;;9.57;2.88;;;10.20;99.90;;;;;;5017010;28;20022;-66
2023/03/21 00:47:02;;;;;;;9.67;2.40;;;10.20;99.90;;;;;;5017288;28;20021;-66
2023/03/21 00:49:32;;;;;;;7.03;2.70;;;10.20;99.90;;;;;;5017661;28;20018;-66
2023/03/21 00:52:01;;;;;;;11.00;3.42;;;10.20;99.90;;;;;;5020362;28;20034;-66
2023/03/21 00:54:27;;;;;;;6.57;2.53;;;10.20;99.90;;;;;;5020699;28;20022;-66
2023/03/21 00:56:52;;;;;;;7.72;2.80;;;10.10;99.90;;;;;;5020379;28;20028;-66
2023/03/21 00:59:18;;;;;;;9.07;2.70;;;10.00;99.90;;;;;;5020153;28;20026;-66
2023/03/21 01:01:45;;;;;;;8.68;2.78;;;10.00;99.90;;;;;;5020656;28;20052;-67
2023/03/21 01:04:13;;;;;;;7.75;2.67;;;10.00;99.90;;;;;;5021096;28;20033;-67
2023/03/21 01:06:40;;;;;;;9.88;2.58;;;9.90;99.90;;;;;;5020001;28;20037;-67
2023/03/21 01:09:13;;;;;;;7.03;2.65;;;9.90;99.90;;;;;;5019944;28;20030;-67
2023/03/21 01:11:40;;;;;;;5.85;2.65;;;10.00;99.90;;;;;;5020034;28;20030;-66
2023/03/21 01:14:06;;;;;;;10.85;2.72;;;10.00;99.90;;;;;;5021225;28;20036;-66
2023/03/21 01:16:31;;;;;;;7.25;2.83;;;10.00;99.90;;;;;;5019930;28;20018;-66
2023/03/21 01:18:58;;;;;;;9.43;2.92;;;10.00;99.90;;;;;;5020893;28;20032;-66
2023/03/21 01:21:24;;;;;;;4.22;2.03;;;10.00;99.90;;;;;;5019929;28;20026;-66
2023/03/21 01:23:49;;;;;;;11.48;2.80;;;10.00;99.90;;;;;;5020739;28;20032;-67
2023/03/21 01:26:15;;;;;;;8.43;2.97;;;9.90;99.90;;;;;;5019822;28;20018;-67
2023/03/21 01:28:42;;;;;;;8.20;3.83;;;9.90;99.90;;;;;;5020545;28;20026;-68
2023/03/21 01:31:09;;;;;;;6.68;2.70;;;9.90;99.90;;;;;;5019520;28;20029;-67
2023/03/21 01:33:35;;;;;;;11.10;3.33;;;9.90;99.90;;;;;;5019791;28;20033;-67
2023/03/21 01:36:00;;;;;;;4.80;2.67;;;9.90;99.90;;;;;;5019551;28;20018;-66
2023/03/21 01:38:26;;;;;;;12.70;3.40;;;9.80;99.90;;;;;;5019788;28;20068;-66
2023/03/21 01:40:52;;;;;;;6.18;2.80;;;9.70;99.90;;;;;;5020479;28;20117;-66
2023/03/21 01:43:24;;;;;;;7.57;3.05;;;9.70;99.90;;;;;;5020502;28;20040;-66
2023/03/21 01:46:19;;;;;;;3.95;2.40;;;9.80;99.90;;;;;;5020402;28;20255;-66
2023/03/21 01:48:50;;;;;;;10.55;2.97;;;9.80;99.90;;;;;;5020053;28;20030;-66
2023/03/21 01:51:16;;;;;;;5.65;2.60;;;9.80;99.90;;;;;;5020219;28;20033;-66
2023/03/21 01:53:42;;;;;;;8.43;3.08;;;9.90;99.90;;;;;;5019615;28;20059;-66
2023/03/21 01:56:15;;;;;;;11.05;2.88;;;9.90;99.90;;;;;;5020025;28;20018;-66
2023/03/21 01:58:41;;;;;;;6.18;2.63;;;9.90;99.90;;;;;;5020069;28;20022;-66
2023/03/21 02:01:08;;;;;;;5.85;2.95;;;10.00;99.90;;;;;;5019782;28;20021;-66
2023/03/21 02:03:36;;;;;;;5.82;2.67;;;9.90;99.90;;;;;;5019983;28;20030;-66
2023/03/21 02:06:12;;;;;;;5.95;2.90;;;10.00;99.90;;;;;;5019410;28;20034;-66
2023/03/21 02:08:38;;;;;;;6.85;2.92;;;10.00;99.90;;;;;;5020079;28;20022;-66
2023/03/21 02:11:04;;;;;;;9.88;2.75;;;10.00;99.90;;;;;;5018992;28;20084;-66
2023/03/21 02:13:30;;;;;;;8.75;3.17;;;10.00;99.90;;;;;;5018884;28;20118;-66
2023/03/21 02:16:14;;;;;;;7.50;3.03;;;10.00;99.90;;;;;;5018897;28;20064;-66
2023/03/21 02:18:53;;;;;;;6.63;3.15;;;10.00;99.90;;;;;;5019562;28;20150;-66
2023/03/21 02:21:32;;;;;;;12.82;3.05;;;10.00;99.90;;;;;;5019558;28;20030;-66
2023/03/21 02:24:22;;;;;;;7.50;2.75;;;10.00;99.90;;;;;;5018850;28;20025;-66
2023/03/21 02:26:58;;;;;;;10.70;3.10;;;9.90;99.90;;;;;;5019574;28;20065;-66
2023/03/21 02:29:52;;;;;;;11.05;3.38;;;9.90;99.90;;;;;;5019172;28;20022;-66
2023/03/21 02:32:47;;;;;;;5.88;2.80;;;9.80;99.90;;;;;;5018467;28;20057;-66
2023/03/21 02:35:37;;;;;;;10.20;3.50;;;9.80;99.90;;;;;;5018586;28;20073;-66
2023/03/21 02:38:32;;;;;;;6.35;3.08;;;9.80;99.90;;;;;;5018505;28;20080;-66
2023/03/21 02:41:11;;;;;;;5.60;2.70;;;9.80;99.90;;;;;;5019331;28;20030;-66
2023/03/21 02:44:15;;;;;;;7.53;3.22;;;9.80;99.90;;;;;;5019281;28;20018;-66
2023/03/21 02:47:04;;;;;;;6.90;3.00;;;9.80;99.90;;;;;;5016258;28;20092;-66
2023/03/21 02:49:46;;;;;;;8.95;3.15;;;9.80;99.90;;;;;;5019182;28;20049;-66
2023/03/21 02:52:16;;;;;;;6.00;3.22;;;9.70;99.90;;;;;;5018294;28;20057;-66
2023/03/21 02:54:43;;;;;;;6.22;3.78;;;9.70;99.90;;;;;;5018302;28;20029;-66
2023/03/21 02:57:09;;;;;;;12.73;3.45;;;9.70;99.90;;;;;;5018929;28;20088;-66
2023/03/21 02:59:36;;;;;;;11.43;3.25;;;9.70;99.90;;;;;;5018231;28;20026;-65
2023/03/21 03:02:02;;;;;;;7.03;3.65;;;9.70;99.90;;;;;;5018773;28;20037;-64
2023/03/21 03:04:35;;;;;;;6.75;3.15;;;9.80;99.90;;;;;;5019076;28;20026;-64
2023/03/21 03:07:34;;;;;;;7.95;3.30;;;9.80;99.90;;;;;;5018067;28;20033;-64
2023/03/21 03:10:25;;;;;;;9.73;4.45;;;9.80;99.90;;;;;;5018591;28;20029;-64
2023/03/21 03:13:12;;;;;;;7.03;3.53;;;9.80;99.90;;;;;;5018477;28;20018;-64
2023/03/21 03:16:11;;;;;;;12.30;4.68;;;9.70;99.90;;;;;;5017843;28;20065;-64
2023/03/21 03:18:40;;;;;;;9.18;3.70;;;9.50;99.90;;;;;;4997395;28;20107;-64
2023/03/21 03:21:21;;;;;;;8.63;3.35;;;9.50;99.90;;;;;;5017673;28;20026;-64
2023/03/21 03:23:58;;;;;;;6.15;3.67;;;9.60;99.90;;;;;;5017636;28;20093;-64
2023/03/21 03:26:44;;;;;;;8.93;3.92;;;9.50;99.90;;;;;;5018369;28;20057;-64
2023/03/21 03:29:15;;;;;;;9.38;3.67;;;9.50;99.90;;;;;;5010291;28;20088;-64
2023/03/21 03:31:47;;;;;;;9.68;3.67;;;9.60;99.90;;;;;;5017478;28;20034;-64
2023/03/21 03:34:19;;;;;;;8.13;3.60;;;9.60;99.90;;;;;;5018290;28;20053;-64
2023/03/21 03:36:50;;;;;;;9.20;3.40;;;9.50;99.90;;;;;;5017406;28;20085;-64
2023/03/21 03:39:17;;;;;;;6.97;4.27;;;9.70;99.90;;;;;;5018348;28;20030;-64
2023/03/21 03:41:52;;;;;;;8.05;3.22;;;9.70;99.90;;;;;;5017224;28;20026;-68
2023/03/21 03:44:17;;;;;;;8.23;4.00;;;9.80;99.90;;;;;;5017405;28;20057;-68
2023/03/21 03:47:03;;;;;;;9.93;3.78;;;9.70;99.90;;;;;;5017974;28;20026;-66
2023/03/21 03:49:35;;;;;;;9.55;4.13;;;9.80;99.90;;;;;;5018059;28;20025;-66
2023/03/21 03:52:26;;;;;;;8.90;3.72;;;9.80;99.90;;;;;;5017823;28;20029;-66
2023/03/21 03:54:53;;;;;;;6.00;3.38;;;9.80;99.90;;;;;;5017016;28;20026;-66
2023/03/21 03:57:19;;;;;;;10.45;3.80;;;9.80;99.90;;;;;;5017158;28;20093;-66
2023/03/21 03:59:45;;;;;;;8.55;3.45;;;9.70;99.90;;;;;;5016994;28;20057;-66
2023/03/21 04:02:12;;;;;;;10.57;3.80;;;9.50;99.90;;;;;;5017250;28;20032;-66
2023/03/21 04:04:38;;;;;;;6.78;3.55;;;9.50;99.90;;;;;;5017058;28;20022;-66
2023/03/21 04:07:05;;;;;;;6.85;3.65;;;9.50;99.90;;;;;;5017729;28;20026;-66
2023/03/21 04:09:31;;;;;;;8.82;3.45;;;9.40;99.90;;;;;;5016937;28;20030;-66
2023/03/21 04:11:57;;;;;;;6.03;3.40;;;9.20;99.90;;;;;;5017575;28;20033;-66
2023/03/21 04:14:23;;;;;;;12.93;3.55;;;9.10;99.90;;;;;;5017588;28;20026;-66
2023/03/21 04:16:49;;;;;;;6.55;3.58;;;9.20;99.90;;;;;;5017129;28;20061;-66
2023/03/21 04:19:15;;;;;;;7.72;4.05;;;9.20;99.90;;;;;;5016800;28;20072;-66
2023/03/21 04:21:41;;;;;;;7.70;3.40;;;9.10;99.90;;;;;;5017794;28;20029;-66
2023/03/21 04:24:07;;;;;;;8.82;4.07;;;9.10;99.90;;;;;;5016521;28;20029;-66
2023/03/21 04:26:34;;;;;;;10.25;4.30;;;9.20;99.90;;;;;;5017354;28;20026;-66
2023/03/21 04:29:01;;;;;;;9.82;4.03;;;9.30;99.90;;;;;;5017621;28;20033;-66
2023/03/21 04:31:30;;;;;;;6.82;3.50;;;9.30;99.90;;;;;;5017261;28;20029;-66
2023/03/21 04:34:08;;;;;;;11.63;3.63;;;9.30;99.90;;;;;;5017322;28;20022;-66
2023/03/21 04:36:37;;;;;;;11.40;3.88;;;9.30;99.90;;;;;;5017634;28;20025;-66
2023/03/21 04:39:08;;;;;;;9.43;3.42;;;9.20;99.90;;;;;;5017528;28;20018;-66
2023/03/21 04:41:36;;;;;;;11.25;4.05;;;9.20;99.90;;;;;;5017302;28;20026;-66
2023/03/21 04:44:01;;;;;;;9.45;4.20;;;9.20;99.90;;;;;;5017225;28;20025;-66
2023/03/21 04:46:27;;;;;;;10.25;3.42;;;9.10;99.90;;;;;;5017475;28;20033;-66
2023/03/21 04:48:52;;;;;;;6.97;3.80;;;9.00;99.90;;;;;;5017285;28;20029;-66
2023/03/21 04:51:18;;;;;;;5.88;3.67;;;9.10;99.90;;;;;;5016200;28;20026;-66
2023/03/21 04:53:44;;;;;;;7.00;3.45;;;9.20;99.90;;;;;;5016380;28;20037;-66
2023/03/21 04:56:10;;;;;;;11.07;3.50;;;9.30;99.90;;;;;;5017109;28;20044;-66
2023/03/21 04:58:36;;;;;;;9.07;3.78;;;9.30;99.90;;;;;;5016428;28;20108;-66
2023/03/21 05:01:04;;;;;;;7.60;3.78;;;9.30;99.90;;;;;;5017136;28;20026;-66
2023/03/21 05:03:33;;;;;;;7.35;3.72;;;9.40;99.90;;;;;;5017027;28;20026;-66
2023/03/21 05:05:59;;;;;;;9.25;3.50;;;9.40;99.90;;;;;;5016281;28;20022;-66
2023/03/21 05:08:25;;;;;;;12.95;4.53;;;9.30;99.90;;;;;;5016920;28;20033;-66
2023/03/21 05:10:51;;;;;;;8.35;3.95;;;9.30;99.90;;;;;;5016875;28;20026;-66
2023/03/21 05:13:16;;;;;;;10.23;3.80;;;9.30;99.90;;;;;;5017293;28;20022;-66
2023/03/21 05:15:42;;;;;;;7.05;3.58;;;9.30;99.90;;;;;;5016345;28;20026;-66
2023/03/21 05:18:10;;;;;;;8.35;3.92;;;9.30;99.90;;;;;;5015917;28;20026;-66
2023/03/21 05:20:41;;;;;;;11.05;3.85;;;9.30;99.90;;;;;;5017248;28;20033;-66
2023/03/21 05:23:09;;;;;;;7.68;3.88;;;9.30;99.90;;;;;;5016910;28;20079;-66
2023/03/21 05:25:36;;;;;;;8.60;3.95;;;9.30;99.90;;;;;;5016056;28;20097;-66
2023/03/21 05:28:04;;;;;;;9.82;3.45;;;9.20;99.90;;;;;;5016163;28;20117;-66
2023/03/21 05:30:29;;;;;;;9.02;4.00;;;9.30;99.90;;;;;;5016054;28;20033;-67
2023/03/21 05:32:55;;;;;;;7.50;3.80;;;9.30;99.90;;;;;;5016016;28;20026;-67
2023/03/21 05:35:21;;;;;;;9.55;4.72;;;9.30;99.90;;;;;;5015975;28;20026;-67
2023/03/21 05:37:46;;;;;;;10.50;5.05;;;9.30;99.90;;;;;;5020041;28;20109;-67
2023/03/21 05:40:12;;;;;;;10.88;4.30;;;9.30;99.90;;;;;;5019774;28;20038;-64
2023/03/21 05:42:38;;;;;;;7.57;4.07;;;9.20;99.90;;;;;;5020388;28;20075;-64
2023/03/21 05:45:04;;;;;;;8.57;4.50;;;9.20;99.90;;;;;;5019547;28;20026;-64
2023/03/21 05:47:30;;;;;;;9.88;4.75;;;9.20;99.90;;;;;;5020327;28;20018;-64
2023/03/21 05:49:55;;;;;;;14.40;4.97;;;9.20;99.90;;;;;;5019289;28;20117;-67
2023/03/21 05:52:21;;;;;;;9.07;4.22;;;9.20;99.90;;;;;;5019443;28;20057;-67
2023/03/21 05:54:46;;;;;;;8.88;3.85;;;9.20;99.90;;;;;;5019318;28;20018;-67
2023/03/21 05:57:12;;;;;;;9.75;4.68;;;9.20;99.90;;;;;;5019330;28;20030;-68
2023/03/21 05:59:37;;;;;;;12.57;4.70;;;9.20;99.90;;;;;;5020110;28;20029;-68
2023/03/21 06:02:03;;;;;;;13.02;4.38;;;9.20;99.90;;;;;;5020577;28;20216;-67
2023/03/21 06:04:29;;;;;;;12.15;5.45;;;9.20;99.90;;;;;;5020250;28;20057;-66
2023/03/21 06:06:55;;;;;;;8.80;4.45;;;9.00;99.90;;;;;;5020241;28;20043;-66
2023/03/21 06:09:21;;;;;;;11.60;4.32;;;8.90;99.90;;;;;;5019287;28;20030;-66
2023/03/21 06:11:50;;;;;;;12.75;5.68;;;8.90;99.90;;;;;;5019633;28;20037;-66
2023/03/21 06:14:16;;;;;;;10.77;4.80;;;9.00;99.90;;;;;;5019119;28;20032;-66
2023/03/21 06:16:43;;;;;;;10.75;4.47;;;9.10;99.90;;;;;;5019676;28;20113;-66
2023/03/21 06:19:09;;;;;;;11.27;4.93;;;9.10;99.90;;;;;;5019181;28;20033;-67
2023/03/21 06:21:34;;;;;;;11.10;5.43;;;9.10;99.90;;;;;;5019696;28;20029;-68
2023/03/21 06:24:00;;;;;;;9.20;5.10;;;9.00;99.90;;;;;;5018733;28;20030;-68
2023/03/21 06:26:26;;;;;;;11.38;5.22;;;9.10;99.90;;;;;;5018757;28;20029;-68
2023/03/21 06:28:52;;;;;;;12.05;4.68;;;9.10;99.90;;;;;;5019030;28;20026;-67
2023/03/21 06:31:21;;;;;;;7.97;4.63;;;9.30;99.90;;;;;;5019594;28;20061;-68
2023/03/21 06:33:48;;;;;;;10.88;5.25;;;9.30;99.90;;;;;;5019359;28;20029;-68
2023/03/21 06:36:14;;;;;;;13.00;5.72;;;9.40;99.90;;;;;;5019301;28;20029;-68
2023/03/21 06:38:40;;;;;;;14.98;4.80;;;9.40;99.90;;;;;;5019174;28;20079;-67
2023/03/21 06:41:06;;;;;;;11.50;6.00;;;9.30;99.90;;;;;;5019316;28;20110;-68
2023/03/21 06:43:32;;;;;;;7.38;4.63;;;9.20;99.90;;;;;;5019279;28;20024;-64
2023/03/21 06:45:59;;;;;;;11.23;4.68;;;9.30;99.90;;;;;;5019209;28;20028;-64
2023/03/21 06:48:25;;;;;;;9.52;4.00;;;9.30;99.90;;;;;;5017404;28;20022;-65
2023/03/21 06:50:51;;;;;;;13.50;5.00;;;9.40;99.90;;;;;;5018186;28;20145;-64
2023/03/21 06:53:37;;;;;;;8.60;4.63;;;9.50;99.90;;;;;;5018280;28;20025;-65
2023/03/21 06:56:03;;;;;;;11.02;4.70;;;9.60;99.90;;;;;;5018148;28;20032;-65
2023/03/21 06:58:28;;;;;;;11.65;4.93;;;9.70;99.90;;;;;;5018023;28;20117;-65
2023/03/21 07:00:56;;;;;;;10.80;4.55;;;9.60;99.90;;;;;;5018488;28;20064;-65
2023/03/21 07:03:22;;;;;;;9.88;4.20;;;9.70;99.90;;;;;;5018283;28;20030;-65
2023/03/21 07:05:47;;;;;;;11.18;4.30;;;9.80;99.90;;;;;;5018246;28;20115;-65
2023/03/21 07:08:13;;;;;;;11.73;5.57;;;9.80;99.90;;;;;;5018717;28;20036;-65
2023/03/21 07:10:43;;;;;;;15.70;4.15;;;9.80;99.90;;;;;;5017793;28;20116;-65
2023/03/21 07:13:09;;;;;;;11.00;4.60;;;9.90;99.90;;;;;;5018720;28;20112;-65
2023/03/21 07:15:37;;;;;;;11.68;4.53;;;10.00;99.90;;;;;;5018043;28;20061;-65
2023/03/21 07:18:06;;;;;;;10.85;4.22;;;10.10;99.90;;;;;;5017511;28;20025;-65
2023/03/21 07:20:32;;;;;;;7.80;3.65;;;10.10;99.90;;;;;;5017658;28;20120;-65
2023/03/21 07:22:58;;;;;;;13.27;4.40;;;10.10;99.90;;;;;;5017847;28;20064;-65
2023/03/21 07:25:24;;;;;;;10.70;4.40;;;10.20;99.90;;;;;;5018503;28;20026;-65
2023/03/21 07:27:49;;;;;;;10.75;3.55;;;10.30;99.90;;;;;;5018011;28;20030;-65
2023/03/21 07:30:15;;;;;;;8.40;4.20;;;10.20;99.90;;;;;;5017708;28;20037;-65
2023/03/21 07:32:41;;;;;;;7.13;4.00;;;10.20;99.90;;;;;;5017392;28;20021;-65
2023/03/21 07:35:10;;;;;;;9.90;4.10;;;10.30;99.90;;;;;;5017507;28;20065;-65
2023/03/21 07:37:36;;;;;;;14.45;4.40;;;10.30;99.90;;;;;;5018360;28;20014;-65
2023/03/21 07:40:08;;;;;;;10.75;3.78;;;10.40;99.90;;;;;;5017603;28;20022;-64
2023/03/21 07:42:34;;;;;;;14.85;4.57;;;10.50;99.90;;;;;;5018511;28;20025;-64
2023/03/21 07:44:59;;;;;;;14.52;4.47;;;10.30;99.90;;;;;;5018155;28;20053;-65
2023/03/21 07:47:25;;;;;;;10.32;4.00;;;10.40;99.90;;;;;;5017180;28;20121;-64
2023/03/21 07:49:50;;;;;;;13.18;4.32;;;10.30;99.90;;;;;;5017219;28;20041;-64
2023/03/21 07:52:16;;;;;;;15.93;5.50;;;10.40;99.90;;;;;;5017155;28;20014;-64
2023/03/21 07:54:41;;;;;;;11.35;4.32;;;10.70;99.90;;;;;;5017326;28;20072;-65
2023/03/21 07:57:07;;;;;;;12.73;4.35;;;10.60;99.90;;;;;;5017971;28;20026;-64
2023/03/21 07:59:33;;;;;;;12.23;4.50;;;10.50;99.90;;;;;;5017458;28;20022;-64
2023/03/21 08:01:58;;;;;;;6.10;3.35;;;10.50;99.90;;;;;;5017142;28;20026;-64
2023/03/21 08:04:25;;;;;;;8.60;3.83;;;10.70;99.90;;;;;;5016827;28;20025;-65
2023/03/21 08:06:50;;;;;;;8.70;3.22;;;10.90;99.90;;;;;;5017011;28;20032;-66
2023/03/21 08:09:16;;;;;;;12.95;4.22;;;11.20;99.90;;;;;;5016707;28;20034;-66
2023/03/21 08:11:41;;;;;;;11.50;3.90;;;11.50;99.90;;;;;;5016713;28;20026;-66
2023/03/21 08:14:07;;;;;;;13.15;4.30;;;11.60;99.90;;;;;;5017001;28;20017;-67
2023/03/21 08:16:32;;;;;;;11.35;4.32;;;11.50;99.90;;;;;;5017686;28;20105;-66
2023/03/21 08:18:58;;;;;;;9.68;3.97;;;11.20;99.90;;;;;;5016584;28;20048;-67
2023/03/21 08:21:24;;;;;;;14.70;4.97;;;11.20;99.90;;;;;;5016795;28;20113;-67
2023/03/21 08:23:50;;;;;;;15.35;4.55;;;11.50;99.90;;;;;;5017472;28;20104;-67
2023/03/21 08:26:17;;;;;;;10.02;3.90;;;11.80;99.90;;;;;;5016660;28;20054;-66
2023/03/21 08:28:43;;;;;;;8.43;4.25;;;11.80;99.90;;;;;;5016641;28;20061;-66
2023/03/21 08:31:10;;;;;;;7.38;3.92;;;11.60;99.90;;;;;;5016506;28;20029;-66
2023/03/21 08:33:36;;;;;;;9.45;3.92;;;11.70;99.90;;;;;;5017312;28;20037;-67
2023/03/21 08:36:02;;;;;;;12.32;4.88;;;12.00;99.90;;;;;;5017266;28;20026;-67
2023/03/21 08:38:29;;;;;;;7.50;4.25;;;12.00;99.90;;;;;;5017645;28;20097;-67
2023/03/21 08:40:55;;;;;;;10.48;4.30;;;12.00;99.90;;;;;;5017655;28;20022;-67
2023/03/21 08:43:21;;;;;;;10.98;3.80;;;12.00;99.90;;;;;;5017285;28;20034;-67
2023/03/21 08:45:48;;;;;;;10.88;3.97;;;11.90;99.90;;;;;;5016397;28;20026;-67
2023/03/21 08:48:14;;;;;;;13.45;4.07;;;11.80;99.90;;;;;;5016186;28;20029;-67
2023/03/21 08:50:39;;;;;;;14.82;4.82;;;12.00;99.90;;;;;;5016640;28;20021;-67
2023/03/21 08:53:05;;;;;;;12.02;5.43;;;11.90;99.90;;;;;;5017463;28;20020;-67
2023/03/21 08:55:32;;;;;;;8.30;4.20;;;11.50;99.90;;;;;;5016264;28;20045;-67
2023/03/21 08:57:58;;;;;;;8.30;4.28;;;11.60;99.90;;;;;;5016185;28;20018;-67
2023/03/21 09:00:24;;;;;;;10.07;3.92;;;11.80;99.90;;;;;;5016557;28;20112;-67
2023/03/21 09:02:51;;;;;;;12.32;4.43;;;12.00;99.90;;;;;;5016153;28;20058;-67
2023/03/21 09:05:17;;;;;;;11.25;4.53;;;12.10;99.90;;;;;;5017094;28;20056;-67
2023/03/21 09:07:44;;;;;;;14.18;4.47;;;12.10;99.90;;;;;;5016158;28;20030;-67
2023/03/21 09:10:13;;;;;;;7.65;3.45;;;11.90;99.90;;;;;;5016073;28;20127;-67
2023/03/21 09:12:40;;;;;;;9.40;4.20;;;11.70;99.90;;;;;;5020236;28;20018;-67
2023/03/21 09:15:07;;;;;;;13.50;4.70;;;11.60;99.90;;;;;;5020108;28;20026;-67
2023/03/21 09:17:32;;;;;;;14.57;4.20;;;11.60;99.90;;;;;;5020813;28;20018;-67
2023/03/21 09:19:59;;;;;;;13.23;4.35;;;11.60;99.90;;;;;;5021416;28;20090;-67
2023/03/21 09:22:26;;;;;;;8.05;4.38;;;11.90;99.90;;;;;;5020859;28;20026;-67
2023/03/21 09:24:52;;;;;;;12.15;3.70;;;12.00;99.90;;;;;;5019827;28;20029;-67
2023/03/21 09:27:21;;;;;;;14.95;4.50;;;12.30;99.90;;;;;;5020663;28;20022;-67
2023/03/21 09:29:50;;;;;;;11.00;4.20;;;12.30;99.90;;;;;;5019952;28;20026;-67
2023/03/21 09:32:17;;;;;;;14.90;4.20;;;12.00;99.90;;;;;;5020939;28;20053;-67
2023/03/21 09:34:43;;;;;;;15.65;4.60;;;11.90;99.90;;;;;;5020600;28;20022;-67
2023/03/21 09:37:11;;;;;;;10.57;4.50;;;11.90;99.90;;;;;;5019891;28;20026;-67
2023/03/21 09:39:41;;;;;;;11.00;4.57;;;11.90;99.90;;;;;;5019709;28;20045;-67
2023/03/21 09:42:19;;;;;;;16.08;5.40;;;11.80;99.90;;;;;;5020461;28;20153;-67
2023/03/21 09:45:04;;;;;;;12.15;4.93;;;11.70;99.90;;;;;;5019634;28;20029;-67
2023/03/21 09:47:44;;;;;;;13.25;5.53;;;11.80;99.90;;;;;;5019610;28;20096;-67
2023/03/21 09:50:19;;;;;;;8.05;4.43;;;11.80;99.90;;;;;;5020196;28;20030;-67
2023/03/21 09:52:47;;;;;;;17.83;5.13;;;11.80;99.90;;;;;;5020177;28;20026;-66
2023/03/21 09:55:20;;;;;;;11.80;4.97;;;12.00;99.90;;;;;;5019258;28;20026;-67
2023/03/21 09:57:50;;;;;;;11.07;5.50;;;12.20;99.90;;;;;;5019318;28;20053;-67
2023/03/21 10:00:29;;;;;;;12.70;4.93;;;12.40;99.90;;;;;;5019098;28;20033;-67
2023/03/21 10:03:01;;;;;;;16.92;6.50;;;12.30;99.90;;;;;;5019294;28;20036;-67
2023/03/21 10:05:30;;;;;;;13.05;5.18;;;12.20;99.90;;;;;;5020371;28;20076;-67
2023/03/21 10:08:15;;;;;;;11.93;4.90;;;12.50;99.90;;;;;;5019845;28;20030;-67
2023/03/21 10:10:48;;;;;;;13.07;5.35;;;12.70;99.90;;;;;;5019053;28;20037;-67
2023/03/21 10:13:34;;;;;;;9.25;4.68;;;12.50;99.90;;;;;;5018951;28;20059;-67
2023/03/21 10:16:13;;;;;;;10.63;4.70;;;12.40;99.90;;;;;;5019057;28;20026;-67
2023/03/21 10:18:40;;;;;;;12.52;5.57;;;12.40;99.90;;;;;;5019692;28;20030;-67
2023/03/21 10:21:06;;;;;;;11.38;5.32;;;12.40;99.90;;;;;;5020337;28;20026;-66
2023/03/21 10:23:32;;;;;;;13.43;4.47;;;12.40;99.90;;;;;;5018238;28;20025;-67
2023/03/21 10:26:01;;;;;;;12.35;4.72;;;12.50;99.90;;;;;;5019072;28;20030;-67
2023/03/21 10:28:34;;;;;;;14.70;5.50;;;12.60;99.90;;;;;;5019883;28;20045;-67
2023/03/21 10:31:03;;;;;;;9.20;5.07;;;12.80;99.90;;;;;;5018475;28;20030;-67
2023/03/21 10:33:34;;;;;;;12.93;5.82;;;12.80;99.90;;;;;;5018687;28;20022;-67
2023/03/21 10:36:16;;;;;;;15.85;5.45;;;12.80;99.90;;;;;;5019464;28;20034;-67
2023/03/21 10:39:29;;;;;;;16.20;5.72;;;12.60;99.90;;;;;;5019277;28;20109;-67
2023/03/21 10:41:55;;;;;;;11.07;4.80;;;12.50;99.90;;;;;;4924373;29;20049;-67
2023/03/21 10:44:20;;;;;;;15.77;5.28;;;12.50;99.90;;;;;;5006580;28;20038;-67
2023/03/21 10:46:54;;;;;;;14.05;5.30;;;12.60;99.90;;;;;;5019473;28;20026;-67
2023/03/21 10:49:21;;;;;;;13.80;5.25;;;12.40;99.90;;;;;;5018158;28;20026;-67
2023/03/21 10:51:50;;;;;;;15.35;4.80;;;12.40;99.90;;;;;;5019160;28;20026;-67
2023/03/21 10:54:20;;;;;;;16.58;5.18;;;12.40;99.90;;;;;;5018297;28;20026;-67
2023/03/21 10:57:16;;;;;;;16.13;5.32;;;12.20;99.90;;;;;;5019057;28;20025;-66
2023/03/21 10:59:48;;;;;;;14.85;5.35;;;12.30;99.90;;;;;;5018913;28;20141;-66
2023/03/21 11:02:23;;;;;;;17.55;5.40;;;12.30;99.90;;;;;;5019232;28;20049;-67
2023/03/21 11:04:49;;;;;;;17.25;5.80;;;12.40;99.90;;;;;;5018146;28;20121;-67
2023/03/21 11:07:14;;;;;;;13.63;5.05;;;12.50;99.90;;;;;;5018236;28;20072;-67
2023/03/21 11:09:49;;;;;;;13.63;5.10;;;12.50;99.90;;;;;;5017869;28;20045;-67
2023/03/21 11:12:17;;;;;;;19.02;5.32;;;12.40;99.90;;;;;;5017931;28;20026;-67
2023/03/21 11:14:47;;;;;;;16.50;4.95;;;12.30;99.90;;;;;;5018780;28;20076;-67
2023/03/21 11:17:16;;;;;;;15.02;5.00;;;12.30;99.90;;;;;;5017717;28;20018;-67
2023/03/21 11:19:50;;;;;;;15.73;5.43;;;12.30;99.90;;;;;;5019120;28;20033;-67
2023/03/21 11:22:17;;;;;;;18.77;5.78;;;12.40;99.90;;;;;;5018906;28;20037;-67
2023/03/21 11:24:51;;;;;;;15.73;4.90;;;12.50;99.90;;;;;;5018432;28;20045;-67
2023/03/21 11:27:17;;;;;;;16.23;5.78;;;12.50;99.90;;;;;;5017668;28;20026;-67
2023/03/21 11:29:51;;;;;;;15.15;5.40;;;12.50;99.90;;;;;;5017577;28;20033;-67
2023/03/21 11:32:25;;;;;;;18.33;5.72;;;12.60;99.90;;;;;;5017479;28;20030;-67
2023/03/21 11:34:52;;;;;;;13.77;5.03;;;12.60;99.90;;;;;;5017301;28;20022;-67
2023/03/21 11:37:27;;;;;;;16.15;5.95;;;12.60;99.90;;;;;;5018650;28;20022;-67
2023/03/21 11:40:24;;;;;;;14.70;5.22;;;12.60;99.90;;;;;;5018344;28;20022;-67
2023/03/21 11:42:55;;;;;;;12.57;4.80;;;12.60;99.90;;;;;;5016404;28;20037;-67
2023/03/21 11:45:22;;;;;;;15.33;5.43;;;12.60;99.90;;;;;;5017886;28;20113;-67
2023/03/21 11:47:50;;;;;;;15.25;4.93;;;12.70;99.90;;;;;;5017582;28;20044;-67
2023/03/21 11:50:19;;;;;;;11.50;4.80;;;12.50;99.90;;;;;;5017952;28;20108;-67
2023/03/21 11:52:47;;;;;;;12.88;4.78;;;12.40;99.90;;;;;;5017251;28;20125;-67
2023/03/21 11:55:31;;;;;;;19.05;5.30;;;12.50;99.90;;;;;;5017428;28;20092;-67
2023/03/21 11:58:25;;;;;;;14.23;5.28;;;12.50;99.90;;;;;;5016946;28;20117;-67
2023/03/21 12:01:08;;;;;;;15.82;4.82;;;12.60;99.90;;;;;;5018118;28;20073;-67
2023/03/21 12:03:33;;;;;;;14.75;5.05;;;12.50;99.90;;;;;;5017790;28;20030;-67
2023/03/21 12:06:10;;;;;;;13.82;5.35;;;12.50;99.90;;;;;;5017070;28;20030;-67
2023/03/21 12:09:04;;;;;;;13.18;5.30;;;12.50;99.90;;;;;;5017622;28;20030;-67
2023/03/21 12:11:36;;;;;;;13.93;5.10;;;12.50;99.90;;;;;;5017219;28;20123;-67
2023/03/21 12:14:22;;;;;;;21.33;3.75;;;12.50;99.90;;;;;;5017811;28;20045;-67
2023/03/21 12:17:15;;;;;;;15.70;4.22;;;12.70;99.90;;;;;;5017620;28;20033;-67
2023/03/21 12:19:49;;;;;;;11.90;5.03;;;12.60;99.90;;;;;;5040526;22;20049;-64
2023/03/21 12:22:29;;;;;;;13.50;4.13;;;12.50;99.90;;;;;;5017571;28;20033;-64
2023/03/21 12:25:05;;;;;;;14.27;4.95;;;12.50;99.90;;;;;;5016686;28;20022;-64
2023/03/21 12:27:53;;;;;;;14.85;4.78;;;12.60;99.90;;;;;;5017559;28;20073;-64
2023/03/21 12:30:31;;;;;;;12.73;4.35;;;12.50;99.90;;;;;;5033868;28;20029;-64
2023/03/21 12:33:05;;;;;;;15.52;5.05;;;12.50;99.90;;;;;;5017448;28;20022;-64
2023/03/21 12:35:40;;;;;;;20.77;4.60;;;12.50;99.90;;;;;;5033964;28;20022;-64
2023/03/21 12:38:27;;;;;;;14.18;4.10;;;12.40;99.90;;;;;;5033847;28;20018;-64
2023/03/21 12:41:01;;;;;;;12.77;5.03;;;12.30;99.90;;;;;;5016554;28;20080;-64
2023/03/21 12:44:03;;;;;;;15.80;5.43;;;12.20;99.90;;;;;;5033016;28;20076;-64
2023/03/21 12:46:52;;;;;;;13.93;4.70;;;12.20;99.90;;;;;;4940810;29;20035;-64
2023/03/21 12:49:51;;;;;;;17.52;8.50;;;12.20;99.90;;;;;;4941813;29;20027;-64
2023/03/21 12:52:53;;;;;;;14.82;6.88;;;12.20;99.90;;;;;;4941242;29;20058;-63
2023/03/21 12:55:30;;;;;;;17.48;5.68;;;12.00;99.90;;;;;;4900255;29;20029;-64
2023/03/21 12:58:05;;;;;;;10.20;4.78;;;11.90;99.90;;;;;;4900837;29;20119;-64
2023/03/21 13:00:50;;;;;;;20.98;6.15;;;11.80;99.90;;;;;;4900126;29;20135;-64
2023/03/21 13:03:23;;;;;;;14.88;5.82;;;11.60;99.90;;;;;;4900663;29;20039;-63